sensor_id;sensor_type;location;lat;lon;timestamp;P1;durP1;ratioP1;P2;durP2;ratioP2
17566;SDS011;8901;52.088;5.084;2024-02-26T00:01:54;6.17;;;5.67;;
17566;SDS011;8901;52.088;5.084;2024-02-26T00:04:24;6.30;;;5.70;;
17566;SDS011;8901;52.088;5.084;2024-02-26T00:06:51;5.90;;;5.50;;
17566;SDS011;8901;52.088;5.084;2024-02-26T00:09:21;6.03;;;5.63;;
17566;SDS011;8901;52.088;5.084;2024-02-26T00:11:50;6.33;;;5.87;;
17566;SDS011;8901;52.088;5.084;2024-02-26T00:14:20;9.73;;;7.23;;
17566;SDS011;8901;52.088;5.084;2024-02-26T00:16:47;6.70;;;6.07;;
17566;SDS011;8901;52.088;5.084;2024-02-26T00:19:14;6.10;;;5.60;;
17566;SDS011;8901;52.088;5.084;2024-02-26T00:21:42;6.50;;;6.00;;
17566;SDS011;8901;52.088;5.084;2024-02-26T00:24:09;6.30;;;5.80;;
17566;SDS011;8901;52.088;5.084;2024-02-26T00:26:38;5.30;;;5.00;;
17566;SDS011;8901;52.088;5.084;2024-02-26T00:29:05;6.60;;;6.03;;
17566;SDS011;8901;52.088;5.084;2024-02-26T00:31:33;6.00;;;5.50;;
17566;SDS011;8901;52.088;5.084;2024-02-26T00:34:00;6.07;;;5.57;;
17566;SDS011;8901;52.088;5.084;2024-02-26T00:36:28;5.53;;;5.20;;
17566;SDS011;8901;52.088;5.084;2024-02-26T00:38:55;6.17;;;5.67;;
17566;SDS011;8901;52.088;5.084;2024-02-26T00:41:22;6.40;;;5.80;;
17566;SDS011;8901;52.088;5.084;2024-02-26T00:43:52;6.53;;;5.27;;
17566;SDS011;8901;52.088;5.084;2024-02-26T00:46:19;5.73;;;5.23;;
17566;SDS011;8901;52.088;5.084;2024-02-26T00:48:46;5.90;;;5.40;;
17566;SDS011;8901;52.088;5.084;2024-02-26T00:51:13;5.20;;;4.80;;
17566;SDS011;8901;52.088;5.084;2024-02-26T00:53:43;5.77;;;5.27;;
17566;SDS011;8901;52.088;5.084;2024-02-26T00:56:10;5.60;;;5.10;;
17566;SDS011;8901;52.088;5.084;2024-02-26T00:58:38;6.60;;;5.97;;
17566;SDS011;8901;52.088;5.084;2024-02-26T01:01:06;5.53;;;5.13;;
17566;SDS011;8901;52.088;5.084;2024-02-26T01:03:34;5.60;;;5.10;;
17566;SDS011;8901;52.088;5.084;2024-02-26T01:06:01;5.50;;;5.10;;
17566;SDS011;8901;52.088;5.084;2024-02-26T01:08:29;6.07;;;5.57;;
17566;SDS011;8901;52.088;5.084;2024-02-26T01:10:57;6.10;;;5.60;;
17566;SDS011;8901;52.088;5.084;2024-02-26T01:13:24;5.97;;;5.47;;
17566;SDS011;8901;52.088;5.084;2024-02-26T01:15:51;6.13;;;5.60;;
17566;SDS011;8901;52.088;5.084;2024-02-26T01:18:20;6.30;;;5.80;;
17566;SDS011;8901;52.088;5.084;2024-02-26T01:20:48;6.23;;;5.73;;
17566;SDS011;8901;52.088;5.084;2024-02-26T01:23:15;5.93;;;5.43;;
17566;SDS011;8901;52.088;5.084;2024-02-26T01:25:42;5.40;;;4.90;;
17566;SDS011;8901;52.088;5.084;2024-02-26T01:28:09;6.20;;;5.50;;
17566;SDS011;8901;52.088;5.084;2024-02-26T01:30:37;5.80;;;5.30;;
17566;SDS011;8901;52.088;5.084;2024-02-26T01:33:05;6.10;;;5.60;;
17566;SDS011;8901;52.088;5.084;2024-02-26T01:35:34;5.73;;;5.23;;
17566;SDS011;8901;52.088;5.084;2024-02-26T01:38:01;6.00;;;5.40;;
17566;SDS011;8901;52.088;5.084;2024-02-26T01:40:28;5.67;;;5.27;;
17566;SDS011;8901;52.088;5.084;2024-02-26T01:42:55;6.03;;;5.53;;
17566;SDS011;8901;52.088;5.084;2024-02-26T01:45:22;6.30;;;5.67;;
17566;SDS011;8901;52.088;5.084;2024-02-26T01:47:50;5.53;;;5.07;;
17566;SDS011;8901;52.088;5.084;2024-02-26T01:50:18;6.07;;;5.33;;
17566;SDS011;8901;52.088;5.084;2024-02-26T01:52:47;6.63;;;6.00;;
17566;SDS011;8901;52.088;5.084;2024-02-26T01:55:15;5.80;;;5.30;;
17566;SDS011;8901;52.088;5.084;2024-02-26T01:57:45;5.93;;;5.40;;
17566;SDS011;8901;52.088;5.084;2024-02-26T02:00:12;5.93;;;5.43;;
17566;SDS011;8901;52.088;5.084;2024-02-26T02:02:42;6.10;;;5.50;;
17566;SDS011;8901;52.088;5.084;2024-02-26T02:05:12;7.60;;;5.90;;
17566;SDS011;8901;52.088;5.084;2024-02-26T02:07:39;6.27;;;5.70;;
17566;SDS011;8901;52.088;5.084;2024-02-26T02:10:09;6.00;;;5.50;;
17566;SDS011;8901;52.088;5.084;2024-02-26T02:12:37;6.67;;;5.40;;
17566;SDS011;8901;52.088;5.084;2024-02-26T02:15:05;6.30;;;5.70;;
17566;SDS011;8901;52.088;5.084;2024-02-26T02:17:32;6.10;;;5.60;;
17566;SDS011;8901;52.088;5.084;2024-02-26T02:20:00;6.00;;;5.50;;
17566;SDS011;8901;52.088;5.084;2024-02-26T02:22:30;5.60;;;5.17;;
17566;SDS011;8901;52.088;5.084;2024-02-26T02:24:58;6.80;;;6.10;;
17566;SDS011;8901;52.088;5.084;2024-02-26T02:27:26;6.47;;;5.87;;
17566;SDS011;8901;52.088;5.084;2024-02-26T02:29:55;6.83;;;6.33;;
17566;SDS011;8901;52.088;5.084;2024-02-26T02:32:22;7.23;;;6.43;;
17566;SDS011;8901;52.088;5.084;2024-02-26T02:34:51;7.60;;;6.17;;
17566;SDS011;8901;52.088;5.084;2024-02-26T02:37:18;6.27;;;5.67;;
17566;SDS011;8901;52.088;5.084;2024-02-26T02:39:47;7.53;;;6.40;;
17566;SDS011;8901;52.088;5.084;2024-02-26T02:42:14;6.70;;;5.93;;
17566;SDS011;8901;52.088;5.084;2024-02-26T02:44:41;7.03;;;6.43;;
17566;SDS011;8901;52.088;5.084;2024-02-26T02:47:09;6.97;;;5.53;;
17566;SDS011;8901;52.088;5.084;2024-02-26T02:49:36;6.97;;;6.37;;
17566;SDS011;8901;52.088;5.084;2024-02-26T02:52:04;6.93;;;6.33;;
17566;SDS011;8901;52.088;5.084;2024-02-26T02:54:31;7.43;;;6.73;;
17566;SDS011;8901;52.088;5.084;2024-02-26T02:57:00;6.33;;;5.73;;
17566;SDS011;8901;52.088;5.084;2024-02-26T02:59:30;7.63;;;6.93;;
17566;SDS011;8901;52.088;5.084;2024-02-26T03:01:57;7.17;;;6.00;;
17566;SDS011;8901;52.088;5.084;2024-02-26T03:04:24;7.87;;;7.07;;
17566;SDS011;8901;52.088;5.084;2024-02-26T03:06:52;7.00;;;6.40;;
17566;SDS011;8901;52.088;5.084;2024-02-26T03:09:19;7.33;;;6.63;;
17566;SDS011;8901;52.088;5.084;2024-02-26T03:11:48;7.87;;;7.17;;
17566;SDS011;8901;52.088;5.084;2024-02-26T03:14:17;8.80;;;7.13;;
17566;SDS011;8901;52.088;5.084;2024-02-26T03:16:44;7.83;;;7.03;;
17566;SDS011;8901;52.088;5.084;2024-02-26T03:19:14;7.43;;;6.83;;
17566;SDS011;8901;52.088;5.084;2024-02-26T03:21:41;6.60;;;5.97;;
17566;SDS011;8901;52.088;5.084;2024-02-26T03:24:10;7.60;;;6.90;;
17566;SDS011;8901;52.088;5.084;2024-02-26T03:26:38;7.70;;;7.00;;
17566;SDS011;8901;52.088;5.084;2024-02-26T03:29:08;7.93;;;7.13;;
17566;SDS011;8901;52.088;5.084;2024-02-26T03:31:37;8.57;;;7.77;;
17566;SDS011;8901;52.088;5.084;2024-02-26T03:34:04;7.60;;;6.90;;
17566;SDS011;8901;52.088;5.084;2024-02-26T03:36:32;7.57;;;6.87;;
17566;SDS011;8901;52.088;5.084;2024-02-26T03:39:00;8.33;;;7.50;;
17566;SDS011;8901;52.088;5.084;2024-02-26T03:41:30;7.93;;;7.13;;
17566;SDS011;8901;52.088;5.084;2024-02-26T03:43:57;9.20;;;8.30;;
17566;SDS011;8901;52.088;5.084;2024-02-26T03:46:24;7.77;;;7.07;;
17566;SDS011;8901;52.088;5.084;2024-02-26T03:48:53;8.27;;;7.47;;
17566;SDS011;8901;52.088;5.084;2024-02-26T03:51:20;8.50;;;7.70;;
17566;SDS011;8901;52.088;5.084;2024-02-26T03:53:48;9.17;;;8.37;;
17566;SDS011;8901;52.088;5.084;2024-02-26T03:56:15;9.50;;;8.47;;
17566;SDS011;8901;52.088;5.084;2024-02-26T03:58:42;8.80;;;8.00;;
17566;SDS011;8901;52.088;5.084;2024-02-26T04:01:09;8.53;;;7.63;;
17566;SDS011;8901;52.088;5.084;2024-02-26T04:03:37;10.37;;;7.87;;
17566;SDS011;8901;52.088;5.084;2024-02-26T04:06:08;10.57;;;8.50;;
17566;SDS011;8901;52.088;5.084;2024-02-26T04:08:35;8.50;;;7.70;;
17566;SDS011;8901;52.088;5.084;2024-02-26T04:11:02;8.80;;;7.90;;
17566;SDS011;8901;52.088;5.084;2024-02-26T04:13:32;9.43;;;7.33;;
17566;SDS011;8901;52.088;5.084;2024-02-26T04:15:59;9.17;;;7.30;;
17566;SDS011;8901;52.088;5.084;2024-02-26T04:18:28;8.73;;;7.83;;
17566;SDS011;8901;52.088;5.084;2024-02-26T04:20:55;9.30;;;7.97;;
17566;SDS011;8901;52.088;5.084;2024-02-26T04:23:25;8.63;;;7.83;;
17566;SDS011;8901;52.088;5.084;2024-02-26T04:25:54;8.17;;;7.27;;
17566;SDS011;8901;52.088;5.084;2024-02-26T04:28:21;9.20;;;8.30;;
17566;SDS011;8901;52.088;5.084;2024-02-26T04:30:50;12.13;;;8.97;;
17566;SDS011;8901;52.088;5.084;2024-02-26T04:33:17;10.07;;;7.73;;
17566;SDS011;8901;52.088;5.084;2024-02-26T04:35:44;9.23;;;8.33;;
17566;SDS011;8901;52.088;5.084;2024-02-26T04:38:12;9.63;;;8.70;;
17566;SDS011;8901;52.088;5.084;2024-02-26T04:40:40;11.47;;;9.10;;
17566;SDS011;8901;52.088;5.084;2024-02-26T04:43:08;8.97;;;8.13;;
17566;SDS011;8901;52.088;5.084;2024-02-26T04:45:35;9.50;;;8.07;;
17566;SDS011;8901;52.088;5.084;2024-02-26T04:48:02;11.10;;;10.00;;
17566;SDS011;8901;52.088;5.084;2024-02-26T04:50:29;11.57;;;9.03;;
17566;SDS011;8901;52.088;5.084;2024-02-26T04:52:56;10.20;;;9.20;;
17566;SDS011;8901;52.088;5.084;2024-02-26T04:55:23;10.10;;;9.10;;
17566;SDS011;8901;52.088;5.084;2024-02-26T04:57:52;10.43;;;9.37;;
17566;SDS011;8901;52.088;5.084;2024-02-26T05:00:19;10.10;;;9.10;;
17566;SDS011;8901;52.088;5.084;2024-02-26T05:02:46;11.17;;;8.33;;
17566;SDS011;8901;52.088;5.084;2024-02-26T05:05:14;10.23;;;9.33;;
17566;SDS011;8901;52.088;5.084;2024-02-26T05:07:41;10.67;;;9.67;;
17566;SDS011;8901;52.088;5.084;2024-02-26T05:10:08;10.70;;;9.33;;
17566;SDS011;8901;52.088;5.084;2024-02-26T05:12:37;10.20;;;9.20;;
17566;SDS011;8901;52.088;5.084;2024-02-26T05:15:06;9.80;;;8.90;;
17566;SDS011;8901;52.088;5.084;2024-02-26T05:17:33;9.97;;;9.00;;
17566;SDS011;8901;52.088;5.084;2024-02-26T05:20:00;10.00;;;9.00;;
17566;SDS011;8901;52.088;5.084;2024-02-26T05:22:27;10.27;;;9.13;;
17566;SDS011;8901;52.088;5.084;2024-02-26T05:24:54;10.63;;;9.17;;
17566;SDS011;8901;52.088;5.084;2024-02-26T05:27:21;10.83;;;9.70;;
17566;SDS011;8901;52.088;5.084;2024-02-26T05:29:49;9.73;;;8.83;;
17566;SDS011;8901;52.088;5.084;2024-02-26T05:32:18;10.00;;;9.00;;
17566;SDS011;8901;52.088;5.084;2024-02-26T05:34:45;10.43;;;9.33;;
17566;SDS011;8901;52.088;5.084;2024-02-26T05:37:12;11.00;;;8.80;;
17566;SDS011;8901;52.088;5.084;2024-02-26T05:39:39;10.33;;;9.33;;
17566;SDS011;8901;52.088;5.084;2024-02-26T05:42:07;9.93;;;8.93;;
17566;SDS011;8901;52.088;5.084;2024-02-26T05:44:34;9.27;;;8.33;;
17566;SDS011;8901;52.088;5.084;2024-02-26T05:47:02;10.17;;;9.17;;
17566;SDS011;8901;52.088;5.084;2024-02-26T05:49:30;10.47;;;9.03;;
17566;SDS011;8901;52.088;5.084;2024-02-26T05:51:58;8.63;;;7.57;;
17566;SDS011;8901;52.088;5.084;2024-02-26T05:54:25;9.80;;;8.80;;
17566;SDS011;8901;52.088;5.084;2024-02-26T05:56:52;10.57;;;9.47;;
17566;SDS011;8901;52.088;5.084;2024-02-26T05:59:20;10.03;;;8.97;;
17566;SDS011;8901;52.088;5.084;2024-02-26T06:01:47;10.37;;;9.37;;
17566;SDS011;8901;52.088;5.084;2024-02-26T06:04:14;10.63;;;9.27;;
17566;SDS011;8901;52.088;5.084;2024-02-26T06:06:43;11.17;;;9.67;;
17566;SDS011;8901;52.088;5.084;2024-02-26T06:09:11;12.30;;;9.10;;
17566;SDS011;8901;52.088;5.084;2024-02-26T06:11:38;10.67;;;9.53;;
17566;SDS011;8901;52.088;5.084;2024-02-26T06:14:06;10.60;;;8.80;;
17566;SDS011;8901;52.088;5.084;2024-02-26T06:16:33;8.83;;;7.93;;
17566;SDS011;8901;52.088;5.084;2024-02-26T06:19:01;11.50;;;10.13;;
17566;SDS011;8901;52.088;5.084;2024-02-26T06:21:28;10.00;;;8.93;;
17566;SDS011;8901;52.088;5.084;2024-02-26T06:23:57;13.30;;;10.40;;
17566;SDS011;8901;52.088;5.084;2024-02-26T06:26:24;10.87;;;9.70;;
17566;SDS011;8901;52.088;5.084;2024-02-26T06:28:53;10.80;;;9.70;;
17566;SDS011;8901;52.088;5.084;2024-02-26T06:31:21;10.67;;;8.77;;
17566;SDS011;8901;52.088;5.084;2024-02-26T06:33:48;11.67;;;9.73;;
17566;SDS011;8901;52.088;5.084;2024-02-26T06:36:15;14.47;;;10.87;;
17566;SDS011;8901;52.088;5.084;2024-02-26T06:38:42;12.50;;;10.10;;
17566;SDS011;8901;52.088;5.084;2024-02-26T06:41:11;12.93;;;10.00;;
17566;SDS011;8901;52.088;5.084;2024-02-26T06:43:39;12.30;;;10.43;;
17566;SDS011;8901;52.088;5.084;2024-02-26T06:46:06;12.03;;;10.60;;
17566;SDS011;8901;52.088;5.084;2024-02-26T06:48:33;13.03;;;10.87;;
17566;SDS011;8901;52.088;5.084;2024-02-26T06:51:02;13.20;;;11.40;;
17566;SDS011;8901;52.088;5.084;2024-02-26T06:53:29;15.03;;;12.33;;
17566;SDS011;8901;52.088;5.084;2024-02-26T06:55:56;15.23;;;13.47;;
17566;SDS011;8901;52.088;5.084;2024-02-26T06:58:25;16.10;;;14.43;;
17566;SDS011;8901;52.088;5.084;2024-02-26T07:00:52;14.27;;;12.77;;
17566;SDS011;8901;52.088;5.084;2024-02-26T07:03:19;14.60;;;12.10;;
17566;SDS011;8901;52.088;5.084;2024-02-26T07:05:47;17.90;;;15.30;;
17566;SDS011;8901;52.088;5.084;2024-02-26T07:08:15;18.40;;;13.37;;
17566;SDS011;8901;52.088;5.084;2024-02-26T07:10:42;15.90;;;13.40;;
17566;SDS011;8901;52.088;5.084;2024-02-26T07:13:10;19.90;;;15.60;;
17566;SDS011;8901;52.088;5.084;2024-02-26T07:15:39;18.87;;;16.33;;
17566;SDS011;8901;52.088;5.084;2024-02-26T07:18:07;16.77;;;12.50;;
17566;SDS011;8901;52.088;5.084;2024-02-26T07:20:35;18.40;;;15.97;;
17566;SDS011;8901;52.088;5.084;2024-02-26T07:23:02;18.80;;;15.17;;
17566;SDS011;8901;52.088;5.084;2024-02-26T07:25:30;17.27;;;14.03;;
17566;SDS011;8901;52.088;5.084;2024-02-26T07:27:57;19.60;;;16.80;;
17566;SDS011;8901;52.088;5.084;2024-02-26T07:30:24;22.10;;;19.80;;
17566;SDS011;8901;52.088;5.084;2024-02-26T07:32:52;18.27;;;15.10;;
17566;SDS011;8901;52.088;5.084;2024-02-26T07:35:20;20.70;;;18.50;;
17566;SDS011;8901;52.088;5.084;2024-02-26T07:37:47;17.97;;;14.47;;
17566;SDS011;8901;52.088;5.084;2024-02-26T07:40:15;20.43;;;14.97;;
17566;SDS011;8901;52.088;5.084;2024-02-26T07:42:43;19.97;;;15.30;;
17566;SDS011;8901;52.088;5.084;2024-02-26T07:45:10;18.53;;;15.27;;
17566;SDS011;8901;52.088;5.084;2024-02-26T07:47:37;18.13;;;15.87;;
17566;SDS011;8901;52.088;5.084;2024-02-26T07:50:08;19.73;;;16.23;;
17566;SDS011;8901;52.088;5.084;2024-02-26T07:52:37;19.20;;;16.33;;
17566;SDS011;8901;52.088;5.084;2024-02-26T07:55:04;18.20;;;16.20;;
17566;SDS011;8901;52.088;5.084;2024-02-26T07:57:32;20.50;;;17.40;;
17566;SDS011;8901;52.088;5.084;2024-02-26T07:59:59;16.07;;;14.37;;
17566;SDS011;8901;52.088;5.084;2024-02-26T08:02:26;18.50;;;15.57;;
17566;SDS011;8901;52.088;5.084;2024-02-26T08:04:54;16.37;;;14.53;;
17566;SDS011;8901;52.088;5.084;2024-02-26T08:07:23;15.63;;;13.97;;
17566;SDS011;8901;52.088;5.084;2024-02-26T08:09:50;16.27;;;14.47;;
17566;SDS011;8901;52.088;5.084;2024-02-26T08:12:17;14.73;;;13.23;;
17566;SDS011;8901;52.088;5.084;2024-02-26T08:14:44;18.27;;;16.57;;
17566;SDS011;8901;52.088;5.084;2024-02-26T08:17:11;15.80;;;14.10;;
17566;SDS011;8901;52.088;5.084;2024-02-26T08:19:38;15.53;;;11.70;;
17566;SDS011;8901;52.088;5.084;2024-02-26T08:22:05;15.50;;;13.00;;
17566;SDS011;8901;52.088;5.084;2024-02-26T08:24:34;13.43;;;11.00;;
17566;SDS011;8901;52.088;5.084;2024-02-26T08:27:02;14.10;;;12.60;;
17566;SDS011;8901;52.088;5.084;2024-02-26T08:29:29;13.60;;;12.23;;
17566;SDS011;8901;52.088;5.084;2024-02-26T08:31:56;14.87;;;12.70;;
17566;SDS011;8901;52.088;5.084;2024-02-26T08:34:23;13.43;;;12.10;;
17566;SDS011;8901;52.088;5.084;2024-02-26T08:36:50;12.53;;;11.23;;
17566;SDS011;8901;52.088;5.084;2024-02-26T08:39:17;12.80;;;10.77;;
17566;SDS011;8901;52.088;5.084;2024-02-26T08:41:47;10.80;;;9.70;;
17566;SDS011;8901;52.088;5.084;2024-02-26T08:44:14;11.93;;;10.63;;
17566;SDS011;8901;52.088;5.084;2024-02-26T08:46:41;13.17;;;11.80;;
17566;SDS011;8901;52.088;5.084;2024-02-26T08:49:08;11.13;;;10.03;;
17566;SDS011;8901;52.088;5.084;2024-02-26T08:51:35;13.00;;;9.30;;
17566;SDS011;8901;52.088;5.084;2024-02-26T08:54:07;10.83;;;9.73;;
17566;SDS011;8901;52.088;5.084;2024-02-26T08:56:35;9.47;;;8.57;;
17566;SDS011;8901;52.088;5.084;2024-02-26T08:59:04;10.60;;;9.47;;
17566;SDS011;8901;52.088;5.084;2024-02-26T09:01:31;9.60;;;8.67;;
17566;SDS011;8901;52.088;5.084;2024-02-26T09:03:58;10.73;;;9.63;;
17566;SDS011;8901;52.088;5.084;2024-02-26T09:06:26;10.67;;;8.90;;
17566;SDS011;8901;52.088;5.084;2024-02-26T09:08:53;10.23;;;9.23;;
17566;SDS011;8901;52.088;5.084;2024-02-26T09:11:20;9.77;;;8.77;;
17566;SDS011;8901;52.088;5.084;2024-02-26T09:13:48;10.60;;;8.33;;
17566;SDS011;8901;52.088;5.084;2024-02-26T09:16:16;11.20;;;8.60;;
17566;SDS011;8901;52.088;5.084;2024-02-26T09:18:43;12.77;;;8.63;;
17566;SDS011;8901;52.088;5.084;2024-02-26T09:21:12;9.70;;;8.40;;
17566;SDS011;8901;52.088;5.084;2024-02-26T09:23:41;8.80;;;7.97;;
17566;SDS011;8901;52.088;5.084;2024-02-26T09:26:08;9.17;;;8.30;;
17566;SDS011;8901;52.088;5.084;2024-02-26T09:28:35;9.30;;;8.40;;
17566;SDS011;8901;52.088;5.084;2024-02-26T09:31:03;10.10;;;9.07;;
17566;SDS011;8901;52.088;5.084;2024-02-26T09:33:32;8.60;;;7.70;;
17566;SDS011;8901;52.088;5.084;2024-02-26T09:35:59;9.93;;;8.53;;
17566;SDS011;8901;52.088;5.084;2024-02-26T09:38:27;8.40;;;7.60;;
17566;SDS011;8901;52.088;5.084;2024-02-26T09:40:54;8.23;;;7.37;;
17566;SDS011;8901;52.088;5.084;2024-02-26T09:43:22;8.20;;;7.50;;
17566;SDS011;8901;52.088;5.084;2024-02-26T09:45:50;8.40;;;7.60;;
17566;SDS011;8901;52.088;5.084;2024-02-26T09:48:17;8.83;;;8.03;;
17566;SDS011;8901;52.088;5.084;2024-02-26T09:50:46;8.00;;;7.20;;
17566;SDS011;8901;52.088;5.084;2024-02-26T09:53:13;7.63;;;6.90;;
17566;SDS011;8901;52.088;5.084;2024-02-26T09:55:41;8.93;;;7.80;;
17566;SDS011;8901;52.088;5.084;2024-02-26T09:58:08;9.17;;;8.27;;
17566;SDS011;8901;52.088;5.084;2024-02-26T10:00:37;9.47;;;7.30;;
17566;SDS011;8901;52.088;5.084;2024-02-26T10:03:06;7.83;;;7.13;;
17566;SDS011;8901;52.088;5.084;2024-02-26T10:05:36;8.63;;;7.53;;
17566;SDS011;8901;52.088;5.084;2024-02-26T10:08:06;8.17;;;7.37;;
17566;SDS011;8901;52.088;5.084;2024-02-26T10:10:35;8.07;;;7.30;;
17566;SDS011;8901;52.088;5.084;2024-02-26T10:13:03;8.17;;;7.43;;
17566;SDS011;8901;52.088;5.084;2024-02-26T10:15:35;8.27;;;7.57;;
17566;SDS011;8901;52.088;5.084;2024-02-26T10:18:03;9.67;;;8.73;;
17566;SDS011;8901;52.088;5.084;2024-02-26T10:20:30;8.07;;;7.37;;
17566;SDS011;8901;52.088;5.084;2024-02-26T10:22:58;8.43;;;7.63;;
17566;SDS011;8901;52.088;5.084;2024-02-26T10:25:26;9.30;;;8.37;;
17566;SDS011;8901;52.088;5.084;2024-02-26T10:27:56;9.20;;;8.30;;
17566;SDS011;8901;52.088;5.084;2024-02-26T10:30:24;9.03;;;7.90;;
17566;SDS011;8901;52.088;5.084;2024-02-26T10:32:51;8.97;;;8.17;;
17566;SDS011;8901;52.088;5.084;2024-02-26T10:35:19;8.57;;;7.87;;
17566;SDS011;8901;52.088;5.084;2024-02-26T10:37:46;8.53;;;7.70;;
17566;SDS011;8901;52.088;5.084;2024-02-26T10:40:14;8.37;;;7.57;;
17566;SDS011;8901;52.088;5.084;2024-02-26T10:42:43;9.03;;;8.23;;
17566;SDS011;8901;52.088;5.084;2024-02-26T10:45:11;8.70;;;7.97;;
17566;SDS011;8901;52.088;5.084;2024-02-26T10:47:39;9.00;;;8.20;;
17566;SDS011;8901;52.088;5.084;2024-02-26T10:50:07;8.23;;;7.43;;
17566;SDS011;8901;52.088;5.084;2024-02-26T10:52:35;10.63;;;8.00;;
17566;SDS011;8901;52.088;5.084;2024-02-26T10:55:03;8.40;;;7.50;;
17566;SDS011;8901;52.088;5.084;2024-02-26T10:57:32;8.33;;;6.93;;
17566;SDS011;8901;52.088;5.084;2024-02-26T11:00:02;8.73;;;7.93;;
17566;SDS011;8901;52.088;5.084;2024-02-26T11:02:30;8.30;;;7.37;;
17566;SDS011;8901;52.088;5.084;2024-02-26T11:04:58;7.50;;;6.80;;
17566;SDS011;8901;52.088;5.084;2024-02-26T11:07:26;9.33;;;7.27;;
17566;SDS011;8901;52.088;5.084;2024-02-26T11:09:53;8.73;;;7.93;;
17566;SDS011;8901;52.088;5.084;2024-02-26T11:12:21;8.77;;;7.87;;
17566;SDS011;8901;52.088;5.084;2024-02-26T11:14:49;8.87;;;8.03;;
17566;SDS011;8901;52.088;5.084;2024-02-26T11:17:21;7.90;;;7.13;;
17566;SDS011;8901;52.088;5.084;2024-02-26T11:19:48;8.70;;;7.83;;
17566;SDS011;8901;52.088;5.084;2024-02-26T11:22:16;8.47;;;7.67;;
17566;SDS011;8901;52.088;5.084;2024-02-26T11:24:44;9.00;;;8.10;;
17566;SDS011;8901;52.088;5.084;2024-02-26T11:27:11;8.70;;;7.90;;
17566;SDS011;8901;52.088;5.084;2024-02-26T11:29:41;9.40;;;8.43;;
17566;SDS011;8901;52.088;5.084;2024-02-26T11:32:10;8.80;;;7.90;;
17566;SDS011;8901;52.088;5.084;2024-02-26T11:34:39;8.40;;;7.60;;
17566;SDS011;8901;52.088;5.084;2024-02-26T11:37:10;9.30;;;8.40;;
17566;SDS011;8901;52.088;5.084;2024-02-26T11:39:37;8.43;;;7.63;;
17566;SDS011;8901;52.088;5.084;2024-02-26T11:42:06;8.97;;;8.17;;
17566;SDS011;8901;52.088;5.084;2024-02-26T11:44:34;9.33;;;8.43;;
17566;SDS011;8901;52.088;5.084;2024-02-26T11:47:12;27.87;;;11.30;;
17566;SDS011;8901;52.088;5.084;2024-02-26T11:49:41;52.87;;;12.60;;
17566;SDS011;8901;52.088;5.084;2024-02-26T11:52:09;8.93;;;7.97;;
17566;SDS011;8901;52.088;5.084;2024-02-26T11:54:39;9.53;;;8.50;;
17566;SDS011;8901;52.088;5.084;2024-02-26T11:59:49;8.83;;;8.03;;
17566;SDS011;8901;52.088;5.084;2024-02-26T12:05:04;7.73;;;6.87;;
17566;SDS011;8901;52.088;5.084;2024-02-26T12:07:32;7.97;;;7.27;;
17566;SDS011;8901;52.088;5.084;2024-02-26T12:10:24;8.77;;;7.87;;
17566;SDS011;8901;52.088;5.084;2024-02-26T12:12:54;8.47;;;7.57;;
17566;SDS011;8901;52.088;5.084;2024-02-26T12:15:30;8.70;;;7.90;;
17566;SDS011;8901;52.088;5.084;2024-02-26T12:17:57;7.77;;;7.07;;
17566;SDS011;8901;52.088;5.084;2024-02-26T12:20:28;8.77;;;7.40;;
17566;SDS011;8901;52.088;5.084;2024-02-26T12:22:55;8.00;;;7.30;;
17566;SDS011;8901;52.088;5.084;2024-02-26T12:25:23;8.27;;;7.47;;
17566;SDS011;8901;52.088;5.084;2024-02-26T12:27:51;8.50;;;7.70;;
17566;SDS011;8901;52.088;5.084;2024-02-26T12:30:18;7.37;;;6.67;;
17566;SDS011;8901;52.088;5.084;2024-02-26T12:32:45;9.07;;;7.40;;
17566;SDS011;8901;52.088;5.084;2024-02-26T12:35:13;6.83;;;6.17;;
17566;SDS011;8901;52.088;5.084;2024-02-26T12:37:45;8.00;;;7.27;;
17566;SDS011;8901;52.088;5.084;2024-02-26T12:40:16;7.80;;;7.03;;
17566;SDS011;8901;52.088;5.084;2024-02-26T12:42:44;8.27;;;7.57;;
17566;SDS011;8901;52.088;5.084;2024-02-26T12:45:12;6.97;;;6.30;;
17566;SDS011;8901;52.088;5.084;2024-02-26T12:47:41;7.70;;;7.10;;
17566;SDS011;8901;52.088;5.084;2024-02-26T12:50:10;7.67;;;6.70;;
17566;SDS011;8901;52.088;5.084;2024-02-26T12:52:41;7.73;;;6.90;;
17566;SDS011;8901;52.088;5.084;2024-02-26T12:55:11;7.27;;;6.57;;
17566;SDS011;8901;52.088;5.084;2024-02-26T12:57:41;7.73;;;7.03;;
17566;SDS011;8901;52.088;5.084;2024-02-26T13:00:11;7.80;;;7.07;;
17566;SDS011;8901;52.088;5.084;2024-02-26T13:02:39;7.70;;;6.70;;
17566;SDS011;8901;52.088;5.084;2024-02-26T13:05:09;8.60;;;6.73;;
17566;SDS011;8901;52.088;5.084;2024-02-26T13:07:40;7.20;;;6.50;;
17566;SDS011;8901;52.088;5.084;2024-02-26T13:10:08;8.07;;;7.27;;
17566;SDS011;8901;52.088;5.084;2024-02-26T13:12:38;8.13;;;7.00;;
17566;SDS011;8901;52.088;5.084;2024-02-26T13:15:09;8.03;;;7.43;;
17566;SDS011;8901;52.088;5.084;2024-02-26T13:17:41;8.37;;;7.53;;
17566;SDS011;8901;52.088;5.084;2024-02-26T13:20:08;7.73;;;7.03;;
17566;SDS011;8901;52.088;5.084;2024-02-26T13:22:36;7.83;;;7.10;;
17566;SDS011;8901;52.088;5.084;2024-02-26T13:25:04;7.53;;;6.90;;
17566;SDS011;8901;52.088;5.084;2024-02-26T13:27:32;8.13;;;7.43;;
17566;SDS011;8901;52.088;5.084;2024-02-26T13:30:05;8.37;;;7.57;;
17566;SDS011;8901;52.088;5.084;2024-02-26T13:32:36;7.70;;;7.07;;
17566;SDS011;8901;52.088;5.084;2024-02-26T13:35:04;7.33;;;6.67;;
17566;SDS011;8901;52.088;5.084;2024-02-26T13:37:32;7.60;;;7.00;;
17566;SDS011;8901;52.088;5.084;2024-02-26T13:39:59;7.57;;;6.87;;
17566;SDS011;8901;52.088;5.084;2024-02-26T13:42:30;7.70;;;7.00;;
17566;SDS011;8901;52.088;5.084;2024-02-26T13:44:57;7.40;;;6.70;;
17566;SDS011;8901;52.088;5.084;2024-02-26T13:47:26;8.40;;;7.60;;
17566;SDS011;8901;52.088;5.084;2024-02-26T13:49:54;7.70;;;6.53;;
17566;SDS011;8901;52.088;5.084;2024-02-26T13:52:22;7.73;;;7.03;;
17566;SDS011;8901;52.088;5.084;2024-02-26T13:54:49;7.77;;;7.03;;
17566;SDS011;8901;52.088;5.084;2024-02-26T13:57:16;7.13;;;6.37;;
17566;SDS011;8901;52.088;5.084;2024-02-26T13:59:44;7.10;;;6.50;;
17566;SDS011;8901;52.088;5.084;2024-02-26T14:02:11;7.47;;;6.87;;
17566;SDS011;8901;52.088;5.084;2024-02-26T14:04:41;6.97;;;6.37;;
17566;SDS011;8901;52.088;5.084;2024-02-26T14:07:08;6.80;;;6.20;;
17566;SDS011;8901;52.088;5.084;2024-02-26T14:09:38;7.00;;;6.40;;
17566;SDS011;8901;52.088;5.084;2024-02-26T14:12:05;7.17;;;6.60;;
17566;SDS011;8901;52.088;5.084;2024-02-26T14:14:33;7.00;;;6.33;;
17566;SDS011;8901;52.088;5.084;2024-02-26T14:17:03;7.33;;;6.73;;
17566;SDS011;8901;52.088;5.084;2024-02-26T14:19:31;6.37;;;5.87;;
17566;SDS011;8901;52.088;5.084;2024-02-26T14:21:59;6.33;;;5.80;;
17566;SDS011;8901;52.088;5.084;2024-02-26T14:24:27;6.60;;;6.10;;
17566;SDS011;8901;52.088;5.084;2024-02-26T14:26:54;6.67;;;6.07;;
17566;SDS011;8901;52.088;5.084;2024-02-26T14:29:21;6.23;;;5.73;;
17566;SDS011;8901;52.088;5.084;2024-02-26T14:31:48;6.77;;;6.17;;
17566;SDS011;8901;52.088;5.084;2024-02-26T14:34:15;6.17;;;5.47;;
17566;SDS011;8901;52.088;5.084;2024-02-26T14:36:44;6.20;;;5.70;;
17566;SDS011;8901;52.088;5.084;2024-02-26T14:39:13;6.70;;;6.00;;
17566;SDS011;8901;52.088;5.084;2024-02-26T14:41:41;6.67;;;6.17;;
17566;SDS011;8901;52.088;5.084;2024-02-26T14:44:08;6.07;;;5.67;;
17566;SDS011;8901;52.088;5.084;2024-02-26T14:46:35;6.30;;;5.73;;
17566;SDS011;8901;52.088;5.084;2024-02-26T14:49:03;6.37;;;5.87;;
17566;SDS011;8901;52.088;5.084;2024-02-26T14:51:30;6.63;;;6.03;;
17566;SDS011;8901;52.088;5.084;2024-02-26T14:53:57;6.43;;;5.90;;
17566;SDS011;8901;52.088;5.084;2024-02-26T14:56:28;6.03;;;5.53;;
17566;SDS011;8901;52.088;5.084;2024-02-26T14:58:56;6.40;;;5.90;;
17566;SDS011;8901;52.088;5.084;2024-02-26T15:01:23;6.43;;;5.90;;
17566;SDS011;8901;52.088;5.084;2024-02-26T15:03:50;6.20;;;5.60;;
17566;SDS011;8901;52.088;5.084;2024-02-26T15:06:17;6.70;;;5.47;;